sensor_id;sensor_type;location;lat;lon;timestamp;pressure;altitude;pressure_sealevel;temperature;humidity
63700;BME280;49845;47.130;142.766;2023-04-26T00:00:50;99958.78;;;8.04;47.45
63700;BME280;49845;47.130;142.766;2023-04-26T00:03:20;99958.81;;;8.00;47.87
63700;BME280;49845;47.130;142.766;2023-04-26T00:05:52;99949.31;;;7.98;47.46
63700;BME280;49845;47.130;142.766;2023-04-26T00:08:23;99949.34;;;7.95;46.74
63700;BME280;49845;47.130;142.766;2023-04-26T00:10:53;99947.66;;;7.94;46.11
63700;BME280;49845;47.130;142.766;2023-04-26T00:13:25;99923.44;;;7.89;47.02
63700;BME280;49845;47.130;142.766;2023-04-26T00:15:56;99940.69;;;7.93;46.57
63700;BME280;49845;47.130;142.766;2023-04-26T00:18:26;99932.00;;;7.97;47.38
63700;BME280;49845;47.130;142.766;2023-04-26T00:20:57;99938.94;;;7.95;47.30
63700;BME280;49845;47.130;142.766;2023-04-26T00:23:27;99930.25;;;7.96;47.45
63700;BME280;49845;47.130;142.766;2023-04-26T00:25:58;99935.44;;;7.99;47.10
63700;BME280;49845;47.130;142.766;2023-04-26T00:28:30;99911.22;;;7.94;47.00
63700;BME280;49845;47.130;142.766;2023-04-26T00:31:00;99932.75;;;8.05;46.95
63700;BME280;49845;47.130;142.766;2023-04-26T00:33:31;99925.00;;;8.02;46.69
63700;BME280;49845;47.130;142.766;2023-04-26T00:36:01;99922.44;;;7.96;46.73
63700;BME280;49845;47.130;142.766;2023-04-26T00:38:31;99930.25;;;7.96;47.04
63700;BME280;49845;47.130;142.766;2023-04-26T00:41:03;99937.25;;;7.94;46.91
63700;BME280;49845;47.130;142.766;2023-04-26T00:43:35;99927.72;;;7.90;46.74
63700;BME280;49845;47.130;142.766;2023-04-26T00:46:06;99931.22;;;7.86;47.57
63700;BME280;49845;47.130;142.766;2023-04-26T00:48:38;99933.03;;;7.82;48.03
63700;BME280;49845;47.130;142.766;2023-04-26T00:51:08;99932.97;;;7.84;48.86
63700;BME280;49845;47.130;142.766;2023-04-26T00:53:39;99926.06;;;7.83;48.89
63700;BME280;49845;47.130;142.766;2023-04-26T00:56:10;99925.22;;;7.81;49.15
63700;BME280;49845;47.130;142.766;2023-04-26T00:58:42;99916.56;;;7.82;49.52
63700;BME280;49845;47.130;142.766;2023-04-26T01:01:13;99920.13;;;7.71;49.51
63700;BME280;49845;47.130;142.766;2023-04-26T01:03:44;99923.69;;;7.61;49.44
63700;BME280;49845;47.130;142.766;2023-04-26T01:06:15;99918.50;;;7.58;49.55
63700;BME280;49845;47.130;142.766;2023-04-26T01:08:46;99919.47;;;7.48;50.37
63700;BME280;49845;47.130;142.766;2023-04-26T01:11:17;99916.91;;;7.45;50.55
63700;BME280;49845;47.130;142.766;2023-04-26T01:13:51;99904.81;;;7.41;51.24
63700;BME280;49845;47.130;142.766;2023-04-26T01:16:22;99924.63;;;7.52;52.90
63700;BME280;49845;47.130;142.766;2023-04-26T01:18:53;99894.47;;;7.34;54.31
63700;BME280;49845;47.130;142.766;2023-04-26T01:21:24;99908.41;;;7.29;55.03
63700;BME280;49845;47.130;142.766;2023-04-26T01:23:56;99909.31;;;7.20;56.93
63700;BME280;49845;47.130;142.766;2023-04-26T01:26:26;99905.03;;;7.16;58.01
63700;BME280;49845;47.130;142.766;2023-04-26T01:28:57;99902.41;;;7.16;58.84
63700;BME280;49845;47.130;142.766;2023-04-26T01:31:27;99903.31;;;7.15;59.88
63700;BME280;49845;47.130;142.766;2023-04-26T01:33:58;99905.09;;;7.10;60.58
63700;BME280;49845;47.130;142.766;2023-04-26T01:36:28;99887.88;;;6.94;60.76
63700;BME280;49845;47.130;142.766;2023-04-26T01:39:01;99898.28;;;6.97;61.32
63700;BME280;49845;47.130;142.766;2023-04-26T01:41:32;99898.22;;;7.03;62.64
63700;BME280;49845;47.130;142.766;2023-04-26T01:44:03;99896.53;;;6.96;63.23
63700;BME280;49845;47.130;142.766;2023-04-26T01:46:33;99894.03;;;6.86;63.50
63700;BME280;49845;47.130;142.766;2023-04-26T01:49:04;99910.53;;;6.73;65.28
63700;BME280;49845;47.130;142.766;2023-04-26T01:51:35;99902.78;;;6.64;66.17
63700;BME280;49845;47.130;142.766;2023-04-26T01:54:07;99900.22;;;6.61;67.59
63700;BME280;49845;47.130;142.766;2023-04-26T01:56:37;99892.44;;;6.61;68.62
63700;BME280;49845;47.130;142.766;2023-04-26T01:59:08;99887.28;;;6.55;69.26
63700;BME280;49845;47.130;142.766;2023-04-26T02:01:41;99853.69;;;6.30;69.83
63700;BME280;49845;47.130;142.766;2023-04-26T02:04:11;99882.16;;;6.42;70.58
63700;BME280;49845;47.130;142.766;2023-04-26T02:06:42;99880.47;;;6.34;71.47
63700;BME280;49845;47.130;142.766;2023-04-26T02:09:14;99873.56;;;6.33;73.05
63700;BME280;49845;47.130;142.766;2023-04-26T02:11:45;99864.88;;;6.40;74.03
63700;BME280;49845;47.130;142.766;2023-04-26T02:14:15;99871.78;;;6.42;74.70
63700;BME280;49845;47.130;142.766;2023-04-26T02:16:46;99862.25;;;6.47;75.05
63700;BME280;49845;47.130;142.766;2023-04-26T02:19:16;99857.00;;;6.57;75.22
63700;BME280;49845;47.130;142.766;2023-04-26T02:21:52;99819.03;;;6.40;75.26
63700;BME280;49845;47.130;142.766;2023-04-26T02:24:25;99789.63;;;6.38;76.82
63700;BME280;49845;47.130;142.766;2023-04-26T02:26:57;99848.97;;;6.89;76.77
63700;BME280;49845;47.130;142.766;2023-04-26T02:29:31;99751.50;;;6.50;77.00
63700;BME280;49845;47.130;142.766;2023-04-26T02:32:10;99835.88;;;7.03;76.71
63700;BME280;49845;47.130;142.766;2023-04-26T02:34:42;99830.72;;;6.97;76.69
63700;BME280;49845;47.130;142.766;2023-04-26T02:37:12;99832.38;;;7.04;77.63
63700;BME280;49845;47.130;142.766;2023-04-26T02:39:44;99819.28;;;7.16;76.92
63700;BME280;49845;47.130;142.766;2023-04-26T02:42:18;99809.56;;;7.37;78.36
63700;BME280;49845;47.130;142.766;2023-04-26T02:44:49;99812.75;;;7.60;78.68
63700;BME280;49845;47.130;142.766;2023-04-26T02:47:19;99803.22;;;7.62;78.27
63700;BME280;49845;47.130;142.766;2023-04-26T02:49:50;99791.91;;;7.63;77.83
63700;BME280;49845;47.130;142.766;2023-04-26T02:52:20;99784.16;;;7.59;77.91
63700;BME280;49845;47.130;142.766;2023-04-26T02:54:53;99789.25;;;7.69;78.06
63700;BME280;49845;47.130;142.766;2023-04-26T02:57:23;99783.09;;;7.76;78.60
63700;BME280;49845;47.130;142.766;2023-04-26T02:59:54;99780.56;;;7.72;76.78
63700;BME280;49845;47.130;142.766;2023-04-26T03:02:24;99780.59;;;7.67;76.48
63700;BME280;49845;47.130;142.766;2023-04-26T03:04:55;99776.25;;;7.69;76.29
63700;BME280;49845;47.130;142.766;2023-04-26T03:07:26;99773.59;;;7.74;77.66
63700;BME280;49845;47.130;142.766;2023-04-26T03:09:58;99762.25;;;7.80;76.98
63700;BME280;49845;47.130;142.766;2023-04-26T03:12:29;99763.97;;;7.81;76.69
63700;BME280;49845;47.130;142.766;2023-04-26T03:14:59;99756.09;;;7.87;76.74
63700;BME280;49845;47.130;142.766;2023-04-26T03:17:31;99747.56;;;7.75;76.82
63700;BME280;49845;47.130;142.766;2023-04-26T03:20:01;99750.47;;;7.51;76.70
63700;BME280;49845;47.130;142.766;2023-04-26T03:22:33;99740.94;;;7.50;77.87
63700;BME280;49845;47.130;142.766;2023-04-26T03:25:06;99734.00;;;7.50;78.57
63700;BME280;49845;47.130;142.766;2023-04-26T03:27:37;99738.19;;;7.62;78.83
63700;BME280;49845;47.130;142.766;2023-04-26T03:30:08;99720.75;;;7.72;79.17
63700;BME280;49845;47.130;142.766;2023-04-26T03:32:39;99713.75;;;7.75;78.75
63700;BME280;49845;47.130;142.766;2023-04-26T03:35:09;99719.03;;;7.69;77.39
63700;BME280;49845;47.130;142.766;2023-04-26T03:37:40;99711.50;;;7.49;78.05
63700;BME280;49845;47.130;142.766;2023-04-26T03:40:12;99700.19;;;7.52;78.67
63700;BME280;49845;47.130;142.766;2023-04-26T03:42:44;99689.81;;;7.52;78.79
63700;BME280;49845;47.130;142.766;2023-04-26T03:45:14;99692.34;;;7.55;77.88
63700;BME280;49845;47.130;142.766;2023-04-26T03:47:45;99690.66;;;7.54;78.00
63700;BME280;49845;47.130;142.766;2023-04-26T03:50:16;99689.66;;;7.61;78.82
63700;BME280;49845;47.130;142.766;2023-04-26T03:52:47;99690.59;;;7.57;78.92
63700;BME280;49845;47.130;142.766;2023-04-26T03:55:19;99677.56;;;7.60;79.63
63700;BME280;49845;47.130;142.766;2023-04-26T03:57:50;99665.13;;;7.81;80.20
63700;BME280;49845;47.130;142.766;2023-04-26T04:00:21;99662.50;;;7.82;79.08
63700;BME280;49845;47.130;142.766;2023-04-26T04:02:51;99652.97;;;7.83;78.73
63700;BME280;49845;47.130;142.766;2023-04-26T04:05:22;99659.88;;;7.84;78.98
63700;BME280;49845;47.130;142.766;2023-04-26T04:07:53;99644.25;;;7.87;79.42
63700;BME280;49845;47.130;142.766;2023-04-26T04:10:25;99601.88;;;7.78;79.75
63700;BME280;49845;47.130;142.766;2023-04-26T04:12:56;99630.94;;;8.05;80.01
63700;BME280;49845;47.130;142.766;2023-04-26T04:15:26;99624.84;;;8.06;79.86
63700;BME280;49845;47.130;142.766;2023-04-26T04:17:57;99619.47;;;8.15;79.49
63700;BME280;49845;47.130;142.766;2023-04-26T04:20:27;99621.09;;;8.23;79.59
63700;BME280;49845;47.130;142.766;2023-04-26T04:23:01;99626.25;;;8.26;79.43
63700;BME280;49845;47.130;142.766;2023-04-26T04:25:35;99616.94;;;8.14;77.96
63700;BME280;49845;47.130;142.766;2023-04-26T04:28:06;99598.72;;;8.12;78.82
63700;BME280;49845;47.130;142.766;2023-04-26T04:30:36;99596.69;;;8.30;78.78
63700;BME280;49845;47.130;142.766;2023-04-26T04:33:07;99591.47;;;8.30;78.49
63700;BME280;49845;47.130;142.766;2023-04-26T04:35:37;99595.00;;;8.29;78.62
63700;BME280;49845;47.130;142.766;2023-04-26T04:38:09;99583.97;;;8.13;78.35
63700;BME280;49845;47.130;142.766;2023-04-26T04:40:42;99586.63;;;8.08;78.26
63700;BME280;49845;47.130;142.766;2023-04-26T04:43:12;99583.16;;;8.09;78.97
63700;BME280;49845;47.130;142.766;2023-04-26T04:45:43;99577.97;;;8.09;78.56
63700;BME280;49845;47.130;142.766;2023-04-26T04:48:13;99576.91;;;8.19;78.26
63700;BME280;49845;47.130;142.766;2023-04-26T04:50:44;99567.13;;;8.34;77.76
63700;BME280;49845;47.130;142.766;2023-04-26T04:53:14;99575.63;;;8.45;77.35
63700;BME280;49845;47.130;142.766;2023-04-26T04:55:46;99571.50;;;8.30;76.56
63700;BME280;49845;47.130;142.766;2023-04-26T04:58:18;99564.69;;;8.23;76.46
63700;BME280;49845;47.130;142.766;2023-04-26T05:00:50;99561.47;;;8.10;76.22
63700;BME280;49845;47.130;142.766;2023-04-26T05:03:21;99559.97;;;7.97;76.39
63700;BME280;49845;47.130;142.766;2023-04-26T05:05:52;99550.47;;;7.93;76.84
63700;BME280;49845;47.130;142.766;2023-04-26T05:08:22;99553.16;;;7.90;76.66
63700;BME280;49845;47.130;142.766;2023-04-26T05:10:54;99552.38;;;7.85;77.01
63700;BME280;49845;47.130;142.766;2023-04-26T05:13:25;99552.56;;;7.72;77.28
63700;BME280;49845;47.130;142.766;2023-04-26T05:15:55;99547.97;;;7.32;76.82
63700;BME280;49845;47.130;142.766;2023-04-26T05:18:26;99544.81;;;7.12;78.08
63700;BME280;49845;47.130;142.766;2023-04-26T05:20:57;99531.72;;;7.18;79.52
63700;BME280;49845;47.130;142.766;2023-04-26T05:23:27;99534.19;;;7.27;79.30
63700;BME280;49845;47.130;142.766;2023-04-26T05:26:02;99539.38;;;7.27;79.25
63700;BME280;49845;47.130;142.766;2023-04-26T05:28:33;99538.44;;;7.33;79.65
63700;BME280;49845;47.130;142.766;2023-04-26T05:31:04;99530.63;;;7.34;79.10
63700;BME280;49845;47.130;142.766;2023-04-26T05:33:37;99525.44;;;7.34;78.78
63700;BME280;49845;47.130;142.766;2023-04-26T05:36:08;99527.38;;;7.20;78.89
63700;BME280;49845;47.130;142.766;2023-04-26T05:38:39;99516.78;;;7.32;79.67
63700;BME280;49845;47.130;142.766;2023-04-26T05:41:11;99510.69;;;7.33;79.89
63700;BME280;49845;47.130;142.766;2023-04-26T05:43:41;99508.06;;;7.37;80.54
63700;BME280;49845;47.130;142.766;2023-04-26T05:46:12;99498.59;;;7.34;79.84
63700;BME280;49845;47.130;142.766;2023-04-26T05:48:43;99496.91;;;7.31;80.06
63700;BME280;49845;47.130;142.766;2023-04-26T05:51:13;99491.59;;;7.38;79.50
63700;BME280;49845;47.130;142.766;2023-04-26T05:53:44;99489.88;;;7.37;79.73
63700;BME280;49845;47.130;142.766;2023-04-26T05:56:16;99493.19;;;7.46;79.72
63700;BME280;49845;47.130;142.766;2023-04-26T05:58:46;99487.94;;;7.48;79.30
63700;BME280;49845;47.130;142.766;2023-04-26T06:01:18;99488.84;;;7.47;79.52
63700;BME280;49845;47.130;142.766;2023-04-26T06:03:48;99482.09;;;7.37;79.24
63700;BME280;49845;47.130;142.766;2023-04-26T06:06:23;99476.13;;;7.30;78.83
63700;BME280;49845;47.130;142.766;2023-04-26T06:08:54;99477.09;;;7.21;78.50
63700;BME280;49845;47.130;142.766;2023-04-26T06:11:26;99458.28;;;7.07;78.57
63700;BME280;49845;47.130;142.766;2023-04-26T06:13:56;99473.78;;;7.13;78.76
63700;BME280;49845;47.130;142.766;2023-04-26T06:16:27;99463.47;;;7.07;79.22
63700;BME280;49845;47.130;142.766;2023-04-26T06:18:57;99468.91;;;6.91;79.35
63700;BME280;49845;47.130;142.766;2023-04-26T06:21:28;99469.19;;;6.68;80.20
63700;BME280;49845;47.130;142.766;2023-04-26T06:23:59;99465.78;;;6.65;80.76
63700;BME280;49845;47.130;142.766;2023-04-26T06:26:31;99458.91;;;6.62;81.34
63700;BME280;49845;47.130;142.766;2023-04-26T06:29:02;99465.69;;;6.74;81.80
63700;BME280;49845;47.130;142.766;2023-04-26T06:31:32;99458.72;;;6.76;81.42
63700;BME280;49845;47.130;142.766;2023-04-26T06:34:03;99462.28;;;6.69;81.44
63700;BME280;49845;47.130;142.766;2023-04-26T06:36:35;99454.50;;;6.67;82.14
63700;BME280;49845;47.130;142.766;2023-04-26T06:39:05;99458.88;;;6.64;82.34
63700;BME280;49845;47.130;142.766;2023-04-26T06:41:37;99455.56;;;6.53;82.92
63700;BME280;49845;47.130;142.766;2023-04-26T06:44:08;99449.56;;;6.49;83.62
63700;BME280;49845;47.130;142.766;2023-04-26T06:46:38;99461.91;;;6.32;83.52
63700;BME280;49845;47.130;142.766;2023-04-26T06:49:09;99456.72;;;6.29;84.38
63700;BME280;49845;47.130;142.766;2023-04-26T06:51:40;99450.72;;;6.25;84.54
63700;BME280;49845;47.130;142.766;2023-04-26T06:54:11;99455.88;;;6.28;85.54
63700;BME280;49845;47.130;142.766;2023-04-26T06:56:43;99442.84;;;6.34;85.94
63700;BME280;49845;47.130;142.766;2023-04-26T06:59:14;99447.19;;;6.32;85.95
63700;BME280;49845;47.130;142.766;2023-04-26T07:01:44;99443.75;;;6.29;86.42
63700;BME280;49845;47.130;142.766;2023-04-26T07:04:16;99426.69;;;6.11;86.40
63700;BME280;49845;47.130;142.766;2023-04-26T07:06:48;99438.66;;;6.21;87.44
63700;BME280;49845;47.130;142.766;2023-04-26T07:09:18;99423.19;;;6.15;87.12
63700;BME280;49845;47.130;142.766;2023-04-26T07:11:50;99429.31;;;6.09;87.00
63700;BME280;49845;47.130;142.766;2023-04-26T07:14:21;99429.41;;;6.00;87.77
63700;BME280;49845;47.130;142.766;2023-04-26T07:16:52;99431.91;;;6.08;88.67
63700;BME280;49845;47.130;142.766;2023-04-26T07:19:22;99428.41;;;6.09;88.83
63700;BME280;49845;47.130;142.766;2023-04-26T07:21:53;99423.28;;;6.05;89.19
63700;BME280;49845;47.130;142.766;2023-04-26T07:24:23;99425.88;;;6.04;89.40
63700;BME280;49845;47.130;142.766;2023-04-26T07:26:56;99415.59;;;5.99;88.76
63700;BME280;49845;47.130;142.766;2023-04-26T07:29:26;99419.88;;;5.99;88.68
63700;BME280;49845;47.130;142.766;2023-04-26T07:31:57;99419.97;;;5.88;89.40
63700;BME280;49845;47.130;142.766;2023-04-26T07:34:27;99419.16;;;5.83;89.67
63700;BME280;49845;47.130;142.766;2023-04-26T07:36:58;99414.75;;;5.91;90.35
63700;BME280;49845;47.130;142.766;2023-04-26T07:39:28;99418.19;;;5.93;90.13
63700;BME280;49845;47.130;142.766;2023-04-26T07:42:01;99416.53;;;5.86;90.17
63700;BME280;49845;47.130;142.766;2023-04-26T07:44:31;99414.88;;;5.79;90.91
63700;BME280;49845;47.130;142.766;2023-04-26T07:47:02;99410.66;;;5.72;90.93
63700;BME280;49845;47.130;142.766;2023-04-26T07:49:32;99406.38;;;5.68;91.20
63700;BME280;49845;47.130;142.766;2023-04-26T07:52:03;99409.78;;;5.73;92.25
63700;BME280;49845;47.130;142.766;2023-04-26T07:54:33;99401.28;;;5.58;91.75
63700;BME280;49845;47.130;142.766;2023-04-26T07:57:05;99384.19;;;5.42;92.24
63700;BME280;49845;47.130;142.766;2023-04-26T07:59:36;99406.47;;;5.58;92.52
63700;BME280;49845;47.130;142.766;2023-04-26T08:02:06;99399.59;;;5.51;92.77
63700;BME280;49845;47.130;142.766;2023-04-26T08:04:37;99403.03;;;5.56;93.04
63700;BME280;49845;47.130;142.766;2023-04-26T08:07:07;99396.94;;;5.60;93.56
63700;BME280;49845;47.130;142.766;2023-04-26T08:09:38;99399.56;;;5.57;93.00
63700;BME280;49845;47.130;142.766;2023-04-26T08:12:10;99369.47;;;5.43;93.76
63700;BME280;49845;47.130;142.766;2023-04-26T08:14:41;99399.47;;;5.67;93.49
63700;BME280;49845;47.130;142.766;2023-04-26T08:17:13;99401.16;;;5.72;93.64
63700;BME280;49845;47.130;142.766;2023-04-26T08:19:44;99403.69;;;5.77;93.94
63700;BME280;49845;47.130;142.766;2023-04-26T08:22:15;99385.69;;;5.65;93.15
63700;BME280;49845;47.130;142.766;2023-04-26T08:24:47;99396.81;;;5.71;93.54
63700;BME280;49845;47.130;142.766;2023-04-26T08:27:19;99390.78;;;5.71;93.56
63700;BME280;49845;47.130;142.766;2023-04-26T08:29:51;99401.16;;;5.71;93.58
63700;BME280;49845;47.130;142.766;2023-04-26T08:32:21;99365.03;;;5.54;93.88
63700;BME280;49845;47.130;142.766;2023-04-26T08:34:52;99388.22;;;5.69;93.77
63700;BME280;49845;47.130;142.766;2023-04-26T08:37:22;99387.41;;;5.62;93.80
63700;BME280;49845;47.130;142.766;2023-04-26T08:39:56;99394.31;;;5.63;93.92
63700;BME280;49845;47.130;142.766;2023-04-26T08:42:31;99394.31;;;5.67;94.21
63700;BME280;49845;47.130;142.766;2023-04-26T08:45:05;99392.53;;;5.69;94.46
63700;BME280;49845;47.130;142.766;2023-04-26T08:47:42;99382.31;;;5.53;94.38
63700;BME280;49845;47.130;142.766;2023-04-26T08:50:15;99397.81;;;5.59;94.18
63700;BME280;49845;47.130;142.766;2023-04-26T08:52:47;99375.47;;;5.46;94.67
63700;BME280;49845;47.130;142.766;2023-04-26T08:55:19;99389.25;;;5.51;94.98
63700;BME280;49845;47.130;142.766;2023-04-26T08:57:51;99377.22;;;5.47;94.93
63700;BME280;49845;47.130;142.766;2023-04-26T09:00:27;99389.28;;;5.48;95.39
63700;BME280;49845;47.130;142.766;2023-04-26T09:03:10;99385.88;;;5.43;95.43
63700;BME280;49845;47.130;142.766;2023-04-26T09:05:41;99391.09;;;5.40;95.83
63700;BME280;49845;47.130;142.766;2023-04-26T09:08:18;99362.69;;;5.31;96.40
63700;BME280;49845;47.130;142.766;2023-04-26T09:10:49;99385.88;;;5.43;96.51
63700;BME280;49845;47.130;142.766;2023-04-26T09:13:27;99385.84;;;5.46;96.70
63700;BME280;49845;47.130;142.766;2023-04-26T09:16:02;99384.13;;;5.45;97.22
63700;BME280;49845;47.130;142.766;2023-04-26T09:18:33;99381.47;;;5.53;97.52
63700;BME280;49845;47.130;142.766;2023-04-26T09:21:09;99348.03;;;5.30;97.66
63700;BME280;49845;47.130;142.766;2023-04-26T09:23:56;99373.78;;;5.45;97.80
63700;BME280;49845;47.130;142.766;2023-04-26T09:26:29;99390.13;;;5.49;98.28
63700;BME280;49845;47.130;142.766;2023-04-26T09:29:16;99387.59;;;5.47;98.39
63700;BME280;49845;47.130;142.766;2023-04-26T09:31:49;99384.09;;;5.48;98.48
63700;BME280;49845;47.130;142.766;2023-04-26T09:34:21;99387.59;;;5.47;98.44
63700;BME280;49845;47.130;142.766;2023-04-26T09:36:53;99386.72;;;5.47;98.63
63700;BME280;49845;47.130;142.766;2023-04-26T09:39:33;99377.25;;;5.41;98.69
63700;BME280;49845;47.130;142.766;2023-04-26T09:42:05;99384.19;;;5.42;99.09
63700;BME280;49845;47.130;142.766;2023-04-26T09:44:40;99384.19;;;5.42;99.68
63700;BME280;49845;47.130;142.766;2023-04-26T09:47:14;99380.78;;;5.37;99.50
63700;BME280;49845;47.130;142.766;2023-04-26T09:49:47;99379.03;;;5.36;99.60
63700;BME280;49845;47.130;142.766;2023-04-26T09:52:20;99379.09;;;5.30;99.33
63700;BME280;49845;47.130;142.766;2023-04-26T09:54:55;99379.16;;;5.27;99.71
63700;BME280;49845;47.130;142.766;2023-04-26T09:57:26;99386.09;;;5.18;99.34
63700;BME280;49845;47.130;142.766;2023-04-26T09:59:59;99381.78;;;5.22;100.00
63700;BME280;49845;47.130;142.766;2023-04-26T10:02:41;99383.44;;;5.26;99.99
63700;BME280;49845;47.130;142.766;2023-04-26T10:05:13;99378.25;;;5.26;99.29
63700;BME280;49845;47.130;142.766;2023-04-26T10:07:44;99380.00;;;5.27;99.35
63700;BME280;49845;47.130;142.766;2023-04-26T10:10:17;99365.41;;;5.15;99.35
63700;BME280;49845;47.130;142.766;2023-04-26T10:12:49;99372.38;;;5.10;98.98
63700;BME280;49845;47.130;142.766;2023-04-26T10:15:23;99374.13;;;5.04;99.43
63700;BME280;49845;47.130;142.766;2023-04-26T10:17:55;99376.72;;;5.04;99.40
63700;BME280;49845;47.130;142.766;2023-04-26T10:20:30;99381.06;;;5.03;99.39
63700;BME280;49845;47.130;142.766;2023-04-26T10:23:03;99379.34;;;4.99;99.56
63700;BME280;49845;47.130;142.766;2023-04-26T10:25:42;99377.59;;;5.01;100.00
63700;BME280;49845;47.130;142.766;2023-04-26T10:28:14;99377.59;;;5.03;100.00
63700;BME280;49845;47.130;142.766;2023-04-26T10:30:57;99388.00;;;4.98;99.48
63700;BME280;49845;47.130;142.766;2023-04-26T10:33:29;99389.75;;;4.93;99.07
63700;BME280;49845;47.130;142.766;2023-04-26T10:36:11;99345.13;;;4.63;99.65
63700;BME280;49845;47.130;142.766;2023-04-26T10:42:18;99385.41;;;4.96;99.65
63700;BME280;49845;47.130;142.766;2023-04-26T10:44:54;99353.66;;;4.78;99.78
63700;BME280;49845;47.130;142.766;2023-04-26T10:47:33;99379.34;;;4.99;99.70
63700;BME280;49845;47.130;142.766;2023-04-26T10:50:06;99372.53;;;4.92;99.44
63700;BME280;49845;47.130;142.766;2023-04-26T10:53:05;99389.66;;;5.05;99.68
63700;BME280;49845;47.130;142.766;2023-04-26T10:55:59;99393.16;;;5.04;99.74
63700;BME280;49845;47.130;142.766;2023-04-26T10:58:31;99389.69;;;4.99;99.56
63700;BME280;49845;47.130;142.766;2023-04-26T11:01:06;99382.88;;;4.92;99.41
63700;BME280;49845;47.130;142.766;2023-04-26T11:03:42;99394.88;;;4.99;99.54
63700;BME280;49845;47.130;142.766;2023-04-26T11:06:17;99389.72;;;4.96;99.45
63700;BME280;49845;47.130;142.766;2023-04-26T11:08:49;99394.09;;;4.91;99.26
63700;BME280;49845;47.130;142.766;2023-04-26T11:11:25;99393.28;;;4.83;99.20
63700;BME280;49845;47.130;142.766;2023-04-26T11:14:01;99398.47;;;4.83;99.65
63700;BME280;49845;47.130;142.766;2023-04-26T11:16:33;99401.09;;;4.76;99.07
63700;BME280;49845;47.130;142.766;2023-04-26T11:19:09;99403.72;;;4.70;99.40
63700;BME280;49845;47.130;142.766;2023-04-26T11:21:40;99401.16;;;4.67;99.21
63700;BME280;49845;47.130;142.766;2023-04-26T11:24:14;99408.94;;;4.67;99.48
63700;BME280;49845;47.130;142.766;2023-04-26T11:26:51;99403.78;;;4.61;99.14
63700;BME280;49845;47.130;142.766;2023-04-26T11:29:22;99409.81;;;4.59;99.21
63700;BME280;49845;47.130;142.766;2023-04-26T11:31:55;99402.09;;;4.51;99.04
63700;BME280;49845;47.130;142.766;2023-04-26T11:34:33;99400.41;;;4.50;99.63
63700;BME280;49845;47.130;142.766;2023-04-26T11:37:06;99401.25;;;4.50;99.72
63700;BME280;49845;47.130;142.766;2023-04-26T11:39:38;99399.53;;;4.51;99.65
63700;BME280;49845;47.130;142.766;2023-04-26T11:42:10;99407.28;;;4.51;99.59
63700;BME280;49845;47.130;142.766;2023-04-26T11:44:41;99402.09;;;4.51;100.00
63700;BME280;49845;47.130;142.766;2023-04-26T11:47:15;99392.63;;;4.53;99.97
63700;BME280;49845;47.130;142.766;2023-04-26T11:49:48;99391.81;;;4.45;99.33
63700;BME280;49845;47.130;142.766;2023-04-26T11:52:20;99391.81;;;4.39;99.29
63700;BME280;49845;47.130;142.766;2023-04-26T11:55:01;99391.81;;;4.39;99.67
63700;BME280;49845;47.130;142.766;2023-04-26T11:57:34;99388.38;;;4.40;100.00
63700;BME280;49845;47.130;142.766;2023-04-26T12:00:12;99393.56;;;4.40;100.00
63700;BME280;49845;47.130;142.766;2023-04-26T12:02:45;99393.56;;;4.37;100.00
63700;BME280;49845;47.130;142.766;2023-04-26T12:05:24;99398.75;;;4.33;100.00
63700;BME280;49845;47.130;142.766;2023-04-26T12:07:57;99403.91;;;4.37;100.00
63700;BME280;49845;47.130;142.766;2023-04-26T12:10:33;99403.91;;;4.40;100.00
63700;BME280;49845;47.130;142.766;2023-04-26T12:13:07;99406.50;;;4.40;100.00
63700;BME280;49845;47.130;142.766;2023-04-26T12:15:49;99409.09;;;4.33;100.00
63700;BME280;49845;47.130;142.766;2023-04-26T12:18:22;99405.69;;;4.25;100.00
63700;BME280;49845;47.130;142.766;2023-04-26T12:21:05;99400.53;;;4.22;100.00
63700;BME280;49845;47.130;142.766;2023-04-26T12:23:38;99404.00;;;4.24;100.00
63700;BME280;49845;47.130;142.766;2023-04-26T12:26:13;99405.72;;;4.19;100.00
63700;BME280;49845;47.130;142.766;2023-04-26T12:28:44;99406.59;;;4.14;100.00
63700;BME280;49845;47.130;142.766;2023-04-26T12:31:16;99410.91;;;4.16;100.00
63700;BME280;49845;47.130;142.766;2023-04-26T12:33:47;99384.25;;;3.99;100.00
63700;BME280;49845;47.130;142.766;2023-04-26T12:36:20;99401.41;;;4.17;100.00
63700;BME280;49845;47.130;142.766;2023-04-26T12:38:51;99410.00;;;4.25;100.00
63700;BME280;49845;47.130;142.766;2023-04-26T12:41:24;99412.59;;;4.28;100.00
63700;BME280;49845;47.130;142.766;2023-04-26T12:43:56;99410.84;;;4.35;100.00
63700;BME280;49845;47.130;142.766;2023-04-26T12:46:28;99414.28;;;4.30;100.00
63700;BME280;49845;47.130;142.766;2023-04-26T12:49:00;99412.59;;;4.29;100.00
63700;BME280;49845;47.130;142.766;2023-04-26T12:51:33;99379.91;;;4.04;100.00
63700;BME280;49845;47.130;142.766;2023-04-26T12:54:05;99416.03;;;4.28;100.00
63700;BME280;49845;47.130;142.766;2023-04-26T12:56:36;99410.88;;;4.22;100.00
63700;BME280;49845;47.130;142.766;2023-04-26T12:59:11;99412.63;;;4.20;100.00
63700;BME280;49845;47.130;142.766;2023-04-26T13:01:43;99416.06;;;4.21;100.00
63700;BME280;49845;47.130;142.766;2023-04-26T13:04:14;99409.16;;;4.18;100.00
63700;BME280;49845;47.130;142.766;2023-04-26T13:06:48;99410.88;;;4.19;100.00
63700;BME280;49845;47.130;142.766;2023-04-26T13:09:23;99403.16;;;4.18;100.00
63700;BME280;49845;47.130;142.766;2023-04-26T13:11:55;99404.03;;;4.12;100.00
63700;BME280;49845;47.130;142.766;2023-04-26T13:14:26;99408.34;;;4.08;100.00
63700;BME280;49845;47.130;142.766;2023-04-26T13:16:58;99402.31;;;4.06;100.00